Time;durP1;ratioP1;P1;durP2;ratioP2;P2;SDS_P1;SDS_P2;PMS_P1;PMS_P2;Temp;Humidity;BMP_temperature;BMP_pressure;BME280_temperature;BME280_humidity;BME280_pressure;Samples;Min_cycle;Max_cycle;Signal;HPM_P1;HPM_P2
2023/11/13 00:01:21;;;;;;;2.80;2.53;;;;;;;12.07;59.46;100623.09;4970166;28;99102;-76
2023/11/13 00:03:48;;;;;;;8.82;3.00;;;;;;;12.01;59.43;100628.66;4965483;28;96897;-76
2023/11/13 00:06:14;;;;;;;5.93;3.10;;;;;;;12.03;59.61;100632.06;4969020;28;99123;-76
2023/11/13 00:08:42;;;;;;;3.08;2.50;;;;;;;12.15;59.02;100626.22;4969441;28;98892;-76
2023/11/13 00:11:08;;;;;;;7.35;2.92;;;;;;;11.99;59.44;100638.44;4961303;28;98868;-76
2023/11/13 00:13:37;;;;;;;5.90;2.63;;;;;;;12.13;59.20;100644.00;4967450;28;98578;-77
2023/11/13 00:16:04;;;;;;;7.13;2.70;;;;;;;12.24;58.48;100640.88;4967271;28;96884;-76
2023/11/13 00:18:31;;;;;;;5.50;2.67;;;;;;;12.14;59.04;100640.41;4969682;28;99084;-76
2023/11/13 00:20:58;;;;;;;4.03;2.35;;;;;;;12.04;58.55;100639.09;4968270;28;100882;-75
2023/11/13 00:23:25;;;;;;;3.50;2.42;;;;;;;11.91;59.35;100637.91;4966543;28;96856;-76
2023/11/13 00:25:51;;;;;;;3.97;2.10;;;;;;;11.94;59.30;100643.06;4963882;28;96851;-75
2023/11/13 00:28:17;;;;;;;5.03;2.25;;;;;;;12.14;58.39;100648.34;4967351;28;101291;-74
2023/11/13 00:30:47;;;;;;;4.13;2.20;;;;;;;12.14;58.40;100643.06;4968406;28;98719;-74
2023/11/13 00:33:13;;;;;;;3.60;2.22;;;;;;;12.10;58.49;100649.41;4969338;28;97144;-73
2023/11/13 00:35:41;;;;;;;5.43;2.92;;;;;;;12.17;57.88;100655.31;4968487;28;97551;-73
2023/11/13 00:38:07;;;;;;;3.03;2.20;;;;;;;12.03;58.27;100657.69;4962753;28;99341;-72
2023/11/13 00:40:34;;;;;;;4.72;2.20;;;;;;;12.14;57.81;100650.16;4965935;28;100618;-74
2023/11/13 00:43:01;;;;;;;4.32;2.30;;;;;;;12.14;57.75;100658.94;4965189;28;96771;-74
2023/11/13 00:45:27;;;;;;;7.85;2.70;;;;;;;11.95;58.40;100660.66;4975012;28;97006;-74
2023/11/13 00:47:55;;;;;;;7.55;2.60;;;;;;;12.17;58.00;100658.81;4975266;28;100478;-74
2023/11/13 00:50:22;;;;;;;3.53;2.53;;;;;;;12.01;58.64;100657.78;4961712;28;98978;-73
2023/11/13 00:52:50;;;;;;;4.53;2.25;;;;;;;12.19;57.78;100651.69;4968710;28;96844;-74
2023/11/13 00:55:16;;;;;;;3.78;2.00;;;;;;;12.25;57.82;100645.25;4969050;28;97036;-72
2023/11/13 00:57:46;;;;;;;9.02;2.33;;;;;;;12.40;57.53;100649.88;4967649;28;98975;-72
2023/11/13 01:00:14;;;;;;;3.78;2.00;;;;;;;12.38;56.67;100642.00;4967534;28;102497;-72
2023/11/13 01:02:41;;;;;;;5.13;2.38;;;;;;;12.21;57.25;100643.66;4970112;28;96827;-73
2023/11/13 01:05:09;;;;;;;6.30;2.10;;;;;;;12.18;57.22;100644.66;4971788;28;97028;-73
2023/11/13 01:07:36;;;;;;;3.38;2.30;;;;;;;12.16;57.04;100648.28;4971623;28;98907;-73
2023/11/13 01:10:02;;;;;;;4.25;2.55;;;;;;;12.37;57.02;100642.91;4968363;28;101214;-73
2023/11/13 01:12:29;;;;;;;3.22;2.45;;;;;;;12.20;57.07;100644.59;4968213;28;97662;-72
2023/11/13 01:14:55;;;;;;;3.25;2.05;;;;;;;12.24;57.07;100632.94;4972363;28;96849;-72
2023/11/13 01:17:22;;;;;;;5.72;2.53;;;;;;;12.25;57.12;100632.00;4971953;28;98913;-73
2023/11/13 01:19:49;;;;;;;3.90;2.42;;;;;;;12.43;56.57;100630.31;4971065;28;98970;-74
2023/11/13 01:22:17;;;;;;;7.18;2.35;;;;;;;12.50;56.21;100618.50;4971256;28;96875;-73
2023/11/13 01:24:43;;;;;;;3.28;2.13;;;;;;;12.32;56.46;100622.84;4972399;28;96956;-73
2023/11/13 01:27:10;;;;;;;2.58;2.17;;;;;;;12.23;56.52;100618.81;4967575;28;97713;-72
2023/11/13 01:29:36;;;;;;;5.47;2.05;;;;;;;12.26;56.81;100620.47;4971977;28;97935;-72
2023/11/13 01:32:02;;;;;;;2.33;2.08;;;;;;;12.21;56.68;100615.38;4969844;28;98770;-71
2023/11/13 01:34:29;;;;;;;7.03;1.95;;;;;;;12.29;56.61;100618.53;4972443;28;98872;-71
2023/11/13 01:36:55;;;;;;;6.53;2.00;;;;;;;12.46;56.24;100632.84;4966963;28;99277;-72
2023/11/13 01:39:23;;;;;;;4.72;2.05;;;;;;;12.02;57.25;100627.69;4970664;28;99110;-71
2023/11/13 01:41:49;;;;;;;4.93;2.17;;;;;;;12.19;56.86;100630.50;4970146;28;96887;-74
2023/11/13 01:44:16;;;;;;;6.50;2.13;;;;;;;12.19;56.89;100630.50;4970502;28;97008;-76
2023/11/13 01:46:43;;;;;;;3.72;2.13;;;;;;;12.10;57.23;100628.22;4985239;28;98901;-75
2023/11/13 01:49:10;;;;;;;5.03;2.78;;;;;;;11.95;57.53;100618.28;4970053;28;99042;-74
2023/11/13 01:51:37;;;;;;;3.90;2.30;;;;;;;11.77;58.04;100619.09;4970637;28;96829;-75
2023/11/13 01:54:04;;;;;;;2.63;1.98;;;;;;;12.14;56.98;100621.84;4971881;28;96942;-74
2023/11/13 01:56:34;;;;;;;3.13;1.92;;;;;;;12.21;56.97;100617.16;4968799;28;99216;-74
2023/11/13 01:59:00;;;;;;;7.75;2.55;;;;;;;12.26;56.39;100625.78;4971952;28;98978;-74
2023/11/13 02:01:28;;;;;;;4.57;2.45;;;;;;;12.37;56.25;100616.41;4969217;28;96833;-74
2023/11/13 02:03:54;;;;;;;6.13;2.30;;;;;;;12.26;56.02;100602.81;4970066;28;96953;-74
2023/11/13 02:06:22;;;;;;;4.82;2.25;;;;;;;12.18;56.88;100610.22;4970944;28;100879;-74
2023/11/13 02:08:49;;;;;;;4.22;2.35;;;;;;;12.37;56.33;100605.81;4969692;28;98799;-74
2023/11/13 02:11:17;;;;;;;2.80;1.85;;;;;;;12.19;56.78;100617.25;4971200;28;97127;-74
2023/11/13 02:13:47;;;;;;;2.72;1.90;;;;;;;12.20;56.74;100620.75;4968056;28;98772;-74
2023/11/13 02:16:14;;;;;;;6.35;2.13;;;;;;;12.11;57.35;100606.13;4970947;28;99113;-73
2023/11/13 02:18:40;;;;;;;2.47;2.15;;;;;;;12.20;56.91;100599.56;4981027;28;98763;-74
2023/11/13 02:21:07;;;;;;;2.70;2.10;;;;;;;12.24;56.87;100606.44;4969833;28;97198;-72
2023/11/13 02:23:34;;;;;;;5.88;2.22;;;;;;;12.22;56.42;100606.50;4972664;28;97110;-73
2023/11/13 02:26:05;;;;;;;4.05;2.10;;;;;;;12.45;55.86;100612.56;4964691;28;99111;-74
2023/11/13 02:28:32;;;;;;;2.25;1.90;;;;;;;12.26;56.46;100607.25;4969162;28;98869;-73
2023/11/13 02:30:58;;;;;;;2.40;1.83;;;;;;;12.17;56.47;100620.88;4966029;28;98002;-73
2023/11/13 02:33:25;;;;;;;3.05;1.80;;;;;;;12.23;56.14;100621.47;4973317;28;97297;-74
2023/11/13 02:35:51;;;;;;;3.60;2.10;;;;;;;12.17;56.66;100623.53;4977840;28;99087;-74
2023/11/13 02:38:17;;;;;;;5.00;2.15;;;;;;;12.25;56.59;100629.34;4977494;28;98754;-74
2023/11/13 02:40:45;;;;;;;3.00;1.92;;;;;;;12.27;56.40;100638.94;4971920;28;96794;-75
2023/11/13 02:43:11;;;;;;;2.45;1.73;;;;;;;12.19;56.61;100633.13;4971010;28;99196;-75
2023/11/13 02:45:38;;;;;;;3.15;1.70;;;;;;;12.38;56.13;100635.84;4970857;28;102351;-75
2023/11/13 02:48:05;;;;;;;9.60;1.88;;;;;;;12.38;55.69;100635.84;4979160;28;101056;-74
2023/11/13 02:50:31;;;;;;;6.78;2.08;;;;;;;12.35;56.16;100638.59;4977550;28;96926;-74
2023/11/13 02:52:58;;;;;;;5.85;2.70;;;;;;;12.26;55.90;100634.59;4970149;28;96890;-74
2023/11/13 02:55:24;;;;;;;2.47;1.77;;;;;;;12.19;56.63;100624.34;4978517;28;97642;-74
2023/11/13 02:57:52;;;;;;;4.43;2.13;;;;;;;11.83;57.44;100629.41;4973895;28;97751;-74
2023/11/13 03:00:19;;;;;;;4.13;2.10;;;;;;;11.93;57.58;100622.81;4970360;28;96983;-73
2023/11/13 03:02:46;;;;;;;3.28;2.00;;;;;;;11.97;57.54;100619.09;4968949;28;98926;-75
2023/11/13 03:05:12;;;;;;;3.78;2.08;;;;;;;12.27;56.72;100616.91;4968885;28;100932;-75
2023/11/13 03:07:39;;;;;;;6.93;2.22;;;;;;;12.04;57.10;100609.97;4968521;28;99182;-75
2023/11/13 03:10:06;;;;;;;4.20;2.30;;;;;;;12.27;57.05;100616.91;4971552;28;97707;-75
2023/11/13 03:12:32;;;;;;;5.18;2.35;;;;;;;12.37;56.38;100613.78;4973823;28;96975;-75
2023/11/13 03:15:01;;;;;;;4.57;1.88;;;;;;;12.11;57.77;100623.81;4967868;28;100679;-76
2023/11/13 03:17:27;;;;;;;3.55;1.88;;;;;;;12.01;58.38;100618.06;4966928;28;99226;-75
2023/11/13 03:19:54;;;;;;;2.05;1.85;;;;;;;12.22;57.91;100622.41;4968374;28;97155;-75
2023/11/13 03:22:20;;;;;;;5.18;1.70;;;;;;;11.97;58.03;100624.41;4971083;28;99468;-74
2023/11/13 03:24:46;;;;;;;3.50;1.90;;;;;;;11.88;58.45;100619.50;4966532;28;99074;-74
2023/11/13 03:27:13;;;;;;;5.95;2.78;;;;;;;12.01;58.51;100612.75;4970534;28;98868;-74
2023/11/13 03:29:40;;;;;;;5.30;2.35;;;;;;;11.92;58.18;100626.38;4963375;28;97010;-74
2023/11/13 03:32:08;;;;;;;3.53;1.85;;;;;;;11.87;58.41;100628.38;4970170;28;98646;-75
2023/11/13 03:34:35;;;;;;;4.10;1.83;;;;;;;11.89;58.27;100629.16;4969111;28;100300;-75
2023/11/13 03:37:01;;;;;;;2.30;2.03;;;;;;;11.91;58.47;100638.75;4963669;28;99100;-74
2023/11/13 03:39:28;;;;;;;2.67;1.98;;;;;;;12.06;57.64;100631.09;4970211;28;97136;-75
2023/11/13 03:41:55;;;;;;;7.43;2.15;;;;;;;12.00;57.44;100640.16;4969705;28;97056;-75
2023/11/13 03:44:22;;;;;;;3.10;2.10;;;;;;;11.80;58.05;100638.38;4976980;28;100841;-76
2023/11/13 03:46:48;;;;;;;5.90;2.42;;;;;;;11.81;58.50;100640.09;4968408;28;97776;-75
2023/11/13 03:49:16;;;;;;;4.47;2.20;;;;;;;12.05;57.65;100634.66;4967960;28;96867;-75
2023/11/13 03:51:42;;;;;;;7.22;2.50;;;;;;;12.01;57.78;100630.44;4969530;28;96987;-76
2023/11/13 03:54:08;;;;;;;3.22;2.50;;;;;;;12.07;57.54;100622.22;4968067;28;98907;-75
2023/11/13 03:56:35;;;;;;;5.03;2.38;;;;;;;12.05;57.71;100618.78;4969137;28;99739;-75
2023/11/13 03:59:02;;;;;;;4.55;2.50;;;;;;;12.07;57.38;100615.13;4972177;28;96745;-75
2023/11/13 04:01:29;;;;;;;4.22;2.13;;;;;;;11.88;57.89;100619.50;4966292;28;97109;-75
2023/11/13 04:03:55;;;;;;;7.97;2.20;;;;;;;11.92;57.42;100618.44;4975329;28;100492;-74
2023/11/13 04:06:23;;;;;;;6.80;2.17;;;;;;;12.03;57.61;100620.63;4984123;28;101141;-74
2023/11/13 04:08:49;;;;;;;5.28;2.70;;;;;;;11.88;58.10;100632.75;4969330;28;97306;-74
2023/11/13 04:11:16;;;;;;;4.97;2.25;;;;;;;11.98;57.89;100628.75;4969383;28;97782;-74
2023/11/13 04:13:44;;;;;;;2.53;1.90;;;;;;;11.88;58.26;100630.94;4972573;28;98834;-74
2023/11/13 04:16:10;;;;;;;5.60;2.50;;;;;;;11.89;58.27;100634.44;4969131;28;99915;-75
2023/11/13 04:18:37;;;;;;;3.42;2.00;;;;;;;11.96;58.22;100641.19;4970834;28;96843;-75
2023/11/13 04:21:04;;;;;;;5.25;2.20;;;;;;;11.80;58.80;100638.38;4971293;28;97225;-75
2023/11/13 04:23:32;;;;;;;3.65;2.08;;;;;;;11.85;58.34;100646.09;4970690;28;99670;-74
2023/11/13 04:25:59;;;;;;;4.43;2.00;;;;;;;11.83;58.13;100632.06;4968218;28;98520;-75
2023/11/13 04:28:30;;;;;;;4.55;2.15;;;;;;;11.80;57.83;100629.56;4969864;28;96752;-74
2023/11/13 04:30:57;;;;;;;4.88;2.30;;;;;;;11.82;57.97;100628.56;4969009;28;97046;-76
2023/11/13 04:33:23;;;;;;;3.45;2.08;;;;;;;11.96;57.40;100625.31;4973592;28;99119;-75
2023/11/13 04:35:50;;;;;;;4.20;2.13;;;;;;;11.86;57.29;100635.47;4980769;28;97523;-75
2023/11/13 04:38:17;;;;;;;4.10;2.38;;;;;;;11.81;57.62;100641.88;4971451;28;98061;-76
2023/11/13 04:40:45;;;;;;;13.93;2.35;;;;;;;11.80;58.09;100641.00;4970111;28;98251;-74
2023/11/13 04:43:11;;;;;;;7.68;2.95;;;;;;;11.69;58.22;100637.91;4972677;28;99401;-74
2023/11/13 04:45:39;;;;;;;5.75;2.33;;;;;;;11.88;57.27;100638.03;4972362;28;98039;-74
2023/11/13 04:48:06;;;;;;;7.05;2.42;;;;;;;11.81;57.75;100639.22;4968314;28;96847;-74
2023/11/13 04:50:32;;;;;;;5.05;2.28;;;;;;;11.67;58.06;100644.19;4970834;28;97406;-75
2023/11/13 04:52:58;;;;;;;10.55;2.63;;;;;;;11.85;57.56;100646.97;4970863;28;98668;-75
2023/11/13 04:55:25;;;;;;;3.45;2.55;;;;;;;11.65;57.75;100636.31;4972616;28;99493;-74
2023/11/13 04:57:53;;;;;;;3.03;2.10;;;;;;;11.47;57.75;100643.22;4972553;28;96882;-75
2023/11/13 05:00:19;;;;;;;3.67;2.40;;;;;;;11.50;58.15;100643.09;4972050;28;98810;-74
2023/11/13 05:02:46;;;;;;;5.18;2.60;;;;;;;11.58;57.72;100641.00;4969485;28;101970;-74
2023/11/13 05:05:13;;;;;;;3.45;2.15;;;;;;;11.48;57.83;100642.31;4972475;28;99038;-76
2023/11/13 05:07:39;;;;;;;2.30;1.95;;;;;;;11.47;58.07;100647.66;4985652;28;96915;-75
2023/11/13 05:10:07;;;;;;;5.40;2.08;;;;;;;11.51;58.03;100644.81;4972873;28;96834;-76
2023/11/13 05:12:33;;;;;;;3.75;2.55;;;;;;;11.55;57.93;100651.69;4971157;28;99142;-76
2023/11/13 05:15:01;;;;;;;4.32;2.70;;;;;;;11.66;57.77;100661.00;4970806;28;98931;-74
2023/11/13 05:17:28;;;;;;;3.63;2.50;;;;;;;11.66;57.25;100653.91;4974106;28;97201;-75
2023/11/13 05:19:54;;;;;;;6.60;2.40;;;;;;;11.58;57.43;100650.72;4969712;28;96934;-75
2023/11/13 05:22:21;;;;;;;4.93;2.28;;;;;;;11.53;57.74;100658.88;4970524;28;97715;-75
2023/11/13 05:24:47;;;;;;;2.58;2.33;;;;;;;11.64;56.87;100660.19;4970277;28;99705;-75
2023/11/13 05:27:14;;;;;;;3.53;2.25;;;;;;;11.56;57.58;100658.72;4973047;28;96784;-75
2023/11/13 05:29:41;;;;;;;5.53;2.70;;;;;;;11.70;57.21;100658.16;4970832;28;97058;-76
2023/11/13 05:32:09;;;;;;;3.38;2.40;;;;;;;11.55;57.23;100654.34;4970530;28;99151;-75
2023/11/13 05:34:35;;;;;;;6.13;2.40;;;;;;;11.56;56.95;100652.56;4971110;28;98779;-74
2023/11/13 05:37:02;;;;;;;5.70;2.65;;;;;;;11.66;56.52;100648.63;4978613;28;96779;-75
2023/11/13 05:39:28;;;;;;;6.60;2.25;;;;;;;11.50;57.05;100640.44;4973258;28;96916;-74
2023/11/13 05:41:54;;;;;;;5.18;2.58;;;;;;;11.45;57.29;100639.78;4967672;28;97641;-74
2023/11/13 05:44:21;;;;;;;6.72;2.70;;;;;;;11.43;56.89;100648.69;4972471;28;97801;-76
2023/11/13 05:46:47;;;;;;;4.60;2.63;;;;;;;11.64;56.69;100641.66;4969851;28;96825;-75
2023/11/13 05:49:14;;;;;;;6.82;2.80;;;;;;;11.63;56.49;100648.75;4968075;28;97312;-76
2023/11/13 05:51:41;;;;;;;5.57;2.15;;;;;;;11.24;57.08;100648.56;4969165;28;98952;-75
2023/11/13 05:54:08;;;;;;;4.40;2.40;;;;;;;11.48;56.68;100644.97;4971463;28;99013;-75
2023/11/13 05:56:34;;;;;;;3.85;2.30;;;;;;;11.13;57.61;100645.50;4972445;28;96854;-75
2023/11/13 05:59:01;;;;;;;6.60;2.85;;;;;;;11.35;57.55;100637.59;4970513;28;96924;-75
2023/11/13 06:01:31;;;;;;;4.90;3.30;;;;;;;11.52;56.51;100638.63;4967808;28;99278;-74
2023/11/13 06:03:57;;;;;;;7.90;2.63;;;;;;;11.59;56.63;100642.72;4967482;28;100130;-74
2023/11/13 06:06:25;;;;;;;15.18;2.67;;;;;;;11.39;57.16;100652.41;4977262;28;96878;-74
2023/11/13 06:08:52;;;;;;;5.03;2.70;;;;;;;11.09;58.42;100652.69;4969034;28;96895;-74
2023/11/13 06:11:19;;;;;;;9.85;2.72;;;;;;;11.12;58.65;100652.56;4966919;28;99379;-76
2023/11/13 06:13:46;;;;;;;4.35;2.60;;;;;;;11.14;59.14;100663.97;4969525;28;98983;-77
2023/11/13 06:16:12;;;;;;;3.72;2.60;;;;;;;11.41;58.55;100654.06;4967946;28;97887;-77
2023/11/13 06:18:46;;;;;;;10.10;3.22;;;;;;;11.34;58.96;100665.81;4973035;28;96777;-77
2023/11/13 06:21:12;;;;;;;5.68;2.83;;;;;;;11.09;59.05;100679.13;4968240;28;101708;-74
2023/11/13 06:23:42;;;;;;;4.32;2.70;;;;;;;11.38;57.99;100680.63;4969532;28;98019;-74
2023/11/13 06:26:09;;;;;;;3.45;2.60;;;;;;;11.59;57.00;100673.63;4969030;28;96793;-75
2023/11/13 06:28:35;;;;;;;6.38;2.90;;;;;;;11.48;57.33;100674.06;4968872;28;97150;-73
2023/11/13 06:31:01;;;;;;;9.10;2.55;;;;;;;11.62;57.11;100677.94;4970442;28;99233;-74
2023/11/13 06:33:27;;;;;;;6.75;2.50;;;;;;;11.65;57.19;100672.50;4967422;28;98864;-73
2023/11/13 06:35:54;;;;;;;9.00;2.65;;;;;;;11.53;57.51;100666.81;4963759;28;99051;-74
2023/11/13 06:38:20;;;;;;;6.75;2.67;;;;;;;11.51;57.32;100658.06;4970059;28;97019;-74
2023/11/13 06:40:49;;;;;;;9.65;3.28;;;;;;;11.48;57.86;100654.69;4967168;28;97673;-75
2023/11/13 06:43:19;;;;;;;7.00;2.80;;;;;;;11.47;57.43;100658.25;4966672;28;98884;-74
2023/11/13 06:45:45;;;;;;;5.03;3.13;;;;;;;11.28;57.70;100652.84;4965773;28;100398;-75
2023/11/13 06:48:12;;;;;;;6.78;2.78;;;;;;;11.41;57.76;100659.38;4964171;28;100164;-75
2023/11/13 06:50:39;;;;;;;10.38;3.03;;;;;;;11.38;57.72;100650.66;4965714;28;100439;-74
2023/11/13 06:53:05;;;;;;;4.25;3.10;;;;;;;11.36;58.02;100661.31;4967997;28;97863;-74
2023/11/13 06:55:32;;;;;;;8.95;4.40;;;;;;;11.59;57.19;100661.25;4963310;28;98274;-76
2023/11/13 06:58:00;;;;;;;12.52;5.82;;;;;;;11.37;57.96;100662.16;4960402;28;97830;-76
2023/11/13 07:00:27;;;;;;;8.93;3.50;;;;;;;11.43;57.53;100652.19;4963202;28;98192;-76
2023/11/13 07:02:53;;;;;;;7.03;3.13;;;;;;;11.31;57.28;100657.13;4966574;28;99111;-76
2023/11/13 07:05:22;;;;;;;8.75;4.15;;;;;;;11.38;56.89;100655.97;4965832;28;99093;-76
2023/11/13 07:07:50;;;;;;;11.20;3.67;;;;;;;11.41;57.14;100651.44;4966623;28;96858;-77
2023/11/13 07:10:18;;;;;;;6.03;2.78;;;;;;;11.48;56.60;100644.97;4970070;28;97822;-77
2023/11/13 07:12:45;;;;;;;8.55;2.97;;;;;;;11.53;56.77;100645.63;4977349;28;99660;-76
2023/11/13 07:15:13;;;;;;;5.85;2.65;;;;;;;11.40;57.19;100646.19;4974981;28;98057;-76
2023/11/13 07:17:39;;;;;;;4.32;2.50;;;;;;;11.48;57.90;100652.03;4963968;28;101012;-76
2023/11/13 07:20:08;;;;;;;4.85;2.80;;;;;;;11.78;57.41;100647.28;4967994;28;99512;-77
2023/11/13 07:22:35;;;;;;;5.70;2.63;;;;;;;11.36;58.19;100640.13;4973411;28;101927;-77
2023/11/13 07:25:03;;;;;;;4.40;3.03;;;;;;;11.56;57.68;100648.13;4975575;28;96849;-76
2023/11/13 07:27:30;;;;;;;9.23;3.40;;;;;;;11.61;56.94;100647.09;4969804;28;97833;-75
2023/11/13 07:29:56;;;;;;;6.78;3.47;;;;;;;11.61;57.39;100650.63;4970806;28;99505;-76
2023/11/13 07:32:25;;;;;;;6.78;2.92;;;;;;;11.63;57.71;100643.44;4975300;28;100816;-76
2023/11/13 07:34:53;;;;;;;6.35;3.33;;;;;;;11.84;56.83;100644.38;4969299;28;99237;-76
2023/11/13 07:37:19;;;;;;;8.35;3.10;;;;;;;11.53;57.51;100642.13;4979843;28;97015;-76
2023/11/13 07:39:50;;;;;;;11.82;3.67;;;;;;;11.53;57.62;100637.69;4968114;28;99484;-76
2023/11/13 07:42:16;;;;;;;15.52;3.10;;;;;;;11.47;57.03;100634.44;4969522;28;98884;-76
2023/11/13 07:44:49;;;;;;;9.75;3.45;;;;;;;11.46;56.82;100638.00;4980350;28;97700;-75
2023/11/13 07:47:15;;;;;;;7.80;3.65;;;;;;;11.88;56.25;100643.34;4967466;28;97233;-76
2023/11/13 07:49:44;;;;;;;9.15;3.65;;;;;;;11.54;56.35;100646.50;4965982;28;99467;-76
2023/11/13 07:52:11;;;;;;;6.00;3.75;;;;;;;11.61;56.14;100647.97;4965284;28;98877;-75
2023/11/13 07:54:37;;;;;;;9.15;3.33;;;;;;;11.77;56.44;100657.00;4966558;28;97525;-76
2023/11/13 07:57:04;;;;;;;7.35;3.78;;;;;;;11.74;55.98;100645.69;4967323;28;96780;-76
2023/11/13 07:59:30;;;;;;;6.05;3.40;;;;;;;12.11;54.82;100652.94;4967727;28;101681;-76
2023/11/13 08:01:57;;;;;;;6.45;3.30;;;;;;;11.87;53.54;100644.25;4967280;28;99533;-77
2023/11/13 08:04:24;;;;;;;9.90;3.03;;;;;;;12.15;53.75;100635.97;4959048;28;97297;-77
2023/11/13 08:06:51;;;;;;;6.50;2.92;;;;;;;11.89;53.09;100643.25;4964124;28;98444;-76
2023/11/13 08:09:20;;;;;;;10.23;3.03;;;;;;;12.17;52.87;100642.94;4965773;28;101904;-76
2023/11/13 08:11:46;;;;;;;6.57;3.38;;;;;;;12.18;52.88;100625.25;4965386;28;99210;-75
2023/11/13 08:14:14;;;;;;;5.95;3.53;;;;;;;12.02;53.16;100630.34;4967153;28;99073;-75
2023/11/13 08:16:41;;;;;;;9.00;3.45;;;;;;;12.29;52.30;100631.78;4963527;28;97185;-76
2023/11/13 08:19:08;;;;;;;7.82;3.42;;;;;;;12.31;52.35;100632.59;4967368;28;102014;-75
2023/11/13 08:21:35;;;;;;;9.40;3.72;;;;;;;12.20;52.12;100624.28;4969556;28;98748;-76
2023/11/13 08:24:06;;;;;;;8.32;3.67;;;;;;;12.38;51.26;100636.69;4974503;28;96995;-75
2023/11/13 08:26:32;;;;;;;6.30;3.45;;;;;;;12.15;51.65;100630.66;4977925;28;96747;-75
2023/11/13 08:28:59;;;;;;;10.10;3.70;;;;;;;12.24;52.10;100625.84;4975966;28;100066;-75
2023/11/13 08:31:26;;;;;;;6.80;3.83;;;;;;;12.59;51.58;100629.56;4985969;28;99773;-76
2023/11/13 08:33:52;;;;;;;13.07;4.38;;;;;;;12.67;51.64;100638.00;4982584;28;96683;-75
2023/11/13 08:36:22;;;;;;;8.77;3.95;;;;;;;12.71;51.24;100634.31;4979517;28;96794;-75
2023/11/13 08:38:48;;;;;;;7.35;3.33;;;;;;;12.88;50.96;100638.81;4975035;28;97908;-76
2023/11/13 08:41:18;;;;;;;9.93;4.50;;;;;;;12.23;51.89;100640.00;4980230;28;98724;-76
2023/11/13 08:43:45;;;;;;;6.43;4.03;;;;;;;12.21;52.47;100647.16;4975728;28;97101;-75
2023/11/13 08:46:12;;;;;;;10.10;4.85;;;;;;;12.14;52.53;100637.75;4963603;28;97878;-76
2023/11/13 08:48:38;;;;;;;5.70;4.00;;;;;;;12.23;52.27;100637.38;4968603;28;99409;-73
2023/11/13 08:51:07;;;;;;;7.55;4.60;;;;;;;12.20;52.85;100637.50;4966135;28;98977;-74
2023/11/13 08:53:38;;;;;;;9.85;4.65;;;;;;;12.47;52.44;100626.63;4966539;28;96779;-77
2023/11/13 08:56:07;;;;;;;9.30;4.20;;;;;;;12.71;51.82;100625.50;4968015;28;99244;-77
2023/11/13 08:58:36;;;;;;;12.70;4.90;;;;;;;12.52;52.13;100621.97;4961541;28;98321;-75
2023/11/13 09:01:07;;;;;;;8.05;4.55;;;;;;;12.84;51.45;100615.19;4967926;28;98792;-76
2023/11/13 09:03:34;;;;;;;5.63;4.15;;;;;;;13.15;50.70;100616.31;4953551;28;97358;-75
2023/11/13 09:06:04;;;;;;;14.00;4.80;;;;;;;13.19;49.37;100609.09;4961897;28;97854;-76
2023/11/13 09:08:31;;;;;;;11.55;4.40;;;;;;;13.73;49.10;100600.19;4964371;28;103520;-76
2023/11/13 09:10:57;;;;;;;8.77;4.50;;;;;;;13.70;47.53;100605.66;4964831;28;98684;-75
2023/11/13 09:13:24;;;;;;;10.13;4.70;;;;;;;13.67;47.03;100612.91;4967469;28;97818;-76
2023/11/13 09:15:52;;;;;;;8.82;4.68;;;;;;;13.92;46.74;100614.22;4965139;28;97696;-75
2023/11/13 09:18:23;;;;;;;6.90;4.50;;;;;;;14.24;46.17;100606.41;4964197;28;100230;-76
2023/11/13 09:20:49;;;;;;;7.75;4.20;;;;;;;14.32;46.07;100601.53;4960804;28;99964;-76
2023/11/13 09:23:15;;;;;;;8.63;4.70;;;;;;;14.34;46.24;100607.63;4964673;28;97202;-75
2023/11/13 09:25:42;;;;;;;;;;;;;;;14.32;45.23;100609.50;4967245;28;98143;-76
2023/11/13 09:28:08;;;;;;;;;;;;;;;14.22;45.73;100605.63;4968109;28;100773;-75
2023/11/13 09:30:35;;;;;;;7.67;4.77;;;;;;;14.01;45.82;100607.59;4970552;28;97491;-76
2023/11/13 09:33:05;;;;;;;8.40;4.55;;;;;;;14.22;45.86;100603.81;4969977;28;97693;-74
2023/11/13 09:35:33;;;;;;;9.52;4.60;;;;;;;14.35;45.32;100596.91;4973140;28;96786;-75
2023/11/13 09:38:01;;;;;;;6.70;4.70;;;;;;;14.29;45.90;100597.25;4974436;28;98721;-75
2023/11/13 09:40:29;;;;;;;8.30;4.80;;;;;;;14.26;45.91;100600.06;4975809;28;98869;-75
2023/11/13 09:43:03;;;;;;;10.63;4.75;;;;;;;14.17;46.12;100597.03;4981944;28;97923;-75
2023/11/13 09:45:30;;;;;;;15.38;5.50;;;;;;;14.15;46.57;100594.47;4980326;28;97056;-77
2023/11/13 09:47:59;;;;;;;9.73;4.72;;;;;;;14.26;45.60;100592.09;4968403;28;99809;-76
2023/11/13 09:50:28;;;;;;;7.38;4.55;;;;;;;14.14;45.36;100591.88;4970668;28;98828;-76
2023/11/13 09:52:57;;;;;;;13.18;5.22;;;;;;;14.02;45.83;100584.56;4965844;28;97613;-76
2023/11/13 09:55:26;;;;;;;8.20;4.63;;;;;;;14.15;46.02;100590.94;4973361;28;97226;-76
2023/11/13 09:57:53;;;;;;;9.68;4.80;;;;;;;14.06;46.42;100575.47;4970227;28;98938;-77
2023/11/13 10:00:23;;;;;;;8.25;4.72;;;;;;;14.31;45.89;100578.53;4967391;28;99378;-76
2023/11/13 10:02:52;;;;;;;12.05;4.75;;;;;;;14.26;45.95;100575.28;4967738;28;97185;-74
2023/11/13 10:05:21;;;;;;;9.10;4.85;;;;;;;14.16;45.96;100588.22;4969941;28;97273;-77
2023/11/13 10:07:52;;;;;;;9.15;4.50;;;;;;;13.69;47.21;100585.34;4968106;28;97858;-75
2023/11/13 10:10:22;;;;;;;13.35;5.22;;;;;;;13.85;46.62;100578.31;4964359;28;98264;-75
2023/11/13 10:12:49;;;;;;;9.43;4.45;;;;;;;13.73;47.33;100576.28;4968226;28;97459;-75
2023/11/13 10:15:17;;;;;;;9.35;4.13;;;;;;;13.77;47.41;100571.69;4964942;28;97383;-75
2023/11/13 10:17:46;;;;;;;14.00;3.90;;;;;;;14.20;45.98;100559.66;4965178;28;98922;-77
2023/11/13 10:20:17;;;;;;;10.75;4.43;;;;;;;13.95;46.20;100565.41;4965558;28;98934;-76
2023/11/13 10:22:44;;;;;;;7.22;4.00;;;;;;;13.88;46.47;100556.91;4967218;28;96793;-76
2023/11/13 10:25:12;;;;;;;7.28;4.10;;;;;;;13.95;46.60;100560.09;4965050;28;98056;-77
2023/11/13 10:27:44;;;;;;;9.38;4.40;;;;;;;13.98;46.91;100553.78;4966768;28;99709;-77
2023/11/13 10:30:12;;;;;;;10.27;4.10;;;;;;;14.03;45.86;100551.75;4966726;28;99573;-77
2023/11/13 10:32:38;;;;;;;7.82;3.58;;;;;;;14.03;46.03;100539.31;4970310;28;97197;-73
2023/11/13 10:35:09;;;;;;;9.73;4.00;;;;;;;14.11;46.20;100536.25;4960134;28;97301;-72
2023/11/13 10:37:36;;;;;;;10.25;4.25;;;;;;;14.26;45.79;100535.41;4964192;28;98873;-73
2023/11/13 10:40:06;;;;;;;10.73;4.43;;;;;;;13.75;46.60;100531.06;4967726;28;98960;-73
2023/11/13 10:42:34;;;;;;;7.80;4.00;;;;;;;13.67;47.20;100528.81;4966584;28;97361;-73
2023/11/13 10:45:01;;;;;;;7.50;3.90;;;;;;;13.84;46.61;100514.66;4965569;28;98604;-73
2023/11/13 10:47:30;;;;;;;9.38;4.50;;;;;;;13.83;47.00;100507.63;4971985;28;98929;-72
2023/11/13 10:49:58;;;;;;;10.45;4.30;;;;;;;13.68;46.45;100509.28;4969876;28;99142;-72
2023/11/13 10:52:27;;;;;;;7.35;4.30;;;;;;;13.42;46.32;100502.66;4968514;28;96927;-72
2023/11/13 10:54:56;;;;;;;6.82;4.07;;;;;;;13.46;46.82;100509.50;4968886;28;98075;-72
2023/11/13 10:57:25;;;;;;;5.63;3.95;;;;;;;13.45;46.98;100499.00;4970241;28;99201;-72
2023/11/13 10:59:55;;;;;;;9.63;3.92;;;;;;;13.55;46.23;100497.56;4970405;28;98813;-74
2023/11/13 11:02:26;;;;;;;16.00;4.32;;;;;;;13.46;46.80;100492.72;4969176;28;96793;-72
2023/11/13 11:04:56;;;;;;;7.18;3.63;;;;;;;13.54;45.62;100495.84;4961506;28;97434;-72
2023/11/13 11:07:25;;;;;;;7.38;3.80;;;;;;;13.46;46.02;100487.41;4963552;28;99509;-71
2023/11/13 11:09:56;;;;;;;9.18;4.25;;;;;;;13.64;46.01;100480.31;4965738;28;99635;-72
2023/11/13 11:12:23;;;;;;;9.85;3.33;;;;;;;13.60;45.54;100479.59;4964898;28;97083;-71
2023/11/13 11:15:09;;;;;;;6.43;3.40;;;;;;;13.67;45.13;100465.06;4965615;28;97568;-73
2023/11/13 11:17:41;;;;;;;5.40;3.58;;;;;;;13.64;44.91;100459.94;4962176;28;99472;-73
2023/11/13 11:20:15;;;;;;;4.07;3.13;;;;;;;13.51;44.83;100461.53;4963688;28;99192;-73
2023/11/13 11:22:46;;;;;;;9.05;3.15;;;;;;;13.60;45.33;100461.03;4964270;28;97496;-72
2023/11/13 11:25:34;;;;;;;7.28;3.50;;;;;;;13.78;45.45;100462.72;4962999;28;97531;-74